createdAt,value
2017-11-29T00:01:27.108Z,5.80
2017-11-29T00:03:54.503Z,5.59
2017-11-29T00:06:21.896Z,5.62
2017-11-29T00:08:49.292Z,5.69
2017-11-29T00:11:16.680Z,5.69
2017-11-29T00:13:44.080Z,5.61
2017-11-29T00:16:11.476Z,5.52
2017-11-29T00:18:38.871Z,5.49
2017-11-29T00:21:06.265Z,5.43
2017-11-29T00:23:33.647Z,5.58
2017-11-29T00:26:01.048Z,5.44
2017-11-29T00:28:28.440Z,5.44
2017-11-29T00:30:55.931Z,5.43
2017-11-29T00:33:23.318Z,5.36
2017-11-29T00:35:50.705Z,5.34
2017-11-29T00:38:18.086Z,5.37
2017-11-29T00:40:45.552Z,5.35
2017-11-29T00:43:13.008Z,5.16
2017-11-29T00:45:40.424Z,5.29
2017-11-29T00:48:07.800Z,5.30
2017-11-29T00:50:35.286Z,5.40
2017-11-29T00:53:02.660Z,5.54
2017-11-29T00:55:30.053Z,5.50
2017-11-29T00:57:57.440Z,5.46
2017-11-29T01:00:24.832Z,5.45
2017-11-29T01:02:52.224Z,5.31
2017-11-29T01:05:19.627Z,5.29
2017-11-29T01:07:47.039Z,5.46
2017-11-29T01:10:14.519Z,5.43
2017-11-29T01:12:41.988Z,5.43
2017-11-29T01:15:09.400Z,5.40
2017-11-29T01:17:36.784Z,5.41
2017-11-29T01:20:04.172Z,5.31
2017-11-29T01:22:31.592Z,5.17
2017-11-29T01:24:58.971Z,5.08
2017-11-29T01:27:26.373Z,5.11
2017-11-29T01:29:53.761Z,5.28
2017-11-29T01:32:21.155Z,5.31
2017-11-29T01:34:48.539Z,5.12
2017-11-29T01:37:15.937Z,5.05
2017-11-29T01:39:43.330Z,4.98
2017-11-29T01:42:10.728Z,5.02
2017-11-29T01:44:38.124Z,5.08
2017-11-29T01:47:05.513Z,5.20
2017-11-29T01:49:32.899Z,5.15
2017-11-29T01:52:00.352Z,5.04
2017-11-29T01:54:27.748Z,5.10
2017-11-29T01:56:55.170Z,5.15
2017-11-29T01:59:22.560Z,5.13
2017-11-29T02:10:22.888Z,5.19
2017-11-29T02:12:50.346Z,5.12
2017-11-29T02:15:17.731Z,5.07
2017-11-29T02:17:45.115Z,5.16
2017-11-29T02:20:12.516Z,5.19
2017-11-29T02:22:39.977Z,5.16
2017-11-29T02:25:07.468Z,5.32
2017-11-29T02:27:34.849Z,5.21
2017-11-29T02:30:02.232Z,5.16
2017-11-29T02:32:29.730Z,5.25
2017-11-29T02:34:57.163Z,5.32
2017-11-29T02:37:24.604Z,5.32
2017-11-29T02:40:03.840Z,5.34
2017-11-29T02:42:37.811Z,5.25
2017-11-29T02:45:05.201Z,5.42
2017-11-29T02:47:32.656Z,5.27
2017-11-29T02:50:00.125Z,5.32
2017-11-29T02:52:27.508Z,5.28
2017-11-29T02:54:54.922Z,5.53
2017-11-29T02:57:22.298Z,5.59
2017-11-29T02:59:49.709Z,5.48
2017-11-29T03:02:17.119Z,5.44
2017-11-29T03:04:44.519Z,5.46
2017-11-29T03:07:11.908Z,5.45
2017-11-29T03:09:39.313Z,5.64
2017-11-29T03:12:06.697Z,5.41
2017-11-29T03:14:34.194Z,5.52
2017-11-29T03:17:01.597Z,5.74
2017-11-29T03:19:28.980Z,5.73
2017-11-29T03:21:56.372Z,5.60
2017-11-29T03:24:23.768Z,5.62
2017-11-29T03:26:51.156Z,5.66
2017-11-29T03:29:18.597Z,5.52
2017-11-29T03:31:45.977Z,5.36
2017-11-29T03:34:13.367Z,5.19
2017-11-29T03:36:40.756Z,5.25
2017-11-29T03:39:08.237Z,5.25
2017-11-29T03:41:35.619Z,5.16
2017-11-29T03:44:03.017Z,5.13
2017-11-29T03:46:30.405Z,5.35
2017-11-29T03:48:57.806Z,5.37
2017-11-29T03:51:25.188Z,5.36
2017-11-29T03:53:52.571Z,5.43
2017-11-29T03:56:19.963Z,5.35
2017-11-29T03:58:47.347Z,5.16
2017-11-29T04:01:14.749Z,5.20
2017-11-29T04:03:42.193Z,5.33
2017-11-29T04:06:09.583Z,5.38
2017-11-29T04:08:36.995Z,5.44
2017-11-29T04:11:04.391Z,5.47
2017-11-29T04:13:31.772Z,5.18
2017-11-29T04:15:59.170Z,5.43
2017-11-29T04:18:26.554Z,5.38
2017-11-29T04:20:53.950Z,5.46
2017-11-29T04:23:21.345Z,5.52
2017-11-29T04:25:48.715Z,5.42
2017-11-29T04:28:16.103Z,5.52
2017-11-29T04:30:43.606Z,5.53
2017-11-29T04:33:10.991Z,5.67
2017-11-29T04:35:38.389Z,5.63
2017-11-29T04:38:05.855Z,5.37
2017-11-29T04:40:33.250Z,5.27
2017-11-29T04:43:00.637Z,5.42
2017-11-29T04:45:28.132Z,5.66
2017-11-29T04:47:55.591Z,5.46
2017-11-29T04:50:23.001Z,5.64
2017-11-29T04:52:50.373Z,5.61
2017-11-29T04:55:17.780Z,5.61
2017-11-29T04:57:45.202Z,5.61
2017-11-29T05:00:12.583Z,5.58
2017-11-29T05:02:39.982Z,5.55
2017-11-29T05:05:07.368Z,5.62
2017-11-29T05:07:34.832Z,5.58
2017-11-29T05:10:02.228Z,5.49
2017-11-29T05:12:29.624Z,5.44
2017-11-29T05:14:57.012Z,5.57
2017-11-29T05:17:24.423Z,5.63
2017-11-29T05:19:51.794Z,5.62
2017-11-29T05:22:19.196Z,5.51
2017-11-29T05:24:46.588Z,5.54
2017-11-29T05:27:13.984Z,5.60
2017-11-29T05:29:41.367Z,5.62
2017-11-29T05:32:08.788Z,5.56
2017-11-29T05:34:36.182Z,5.62
2017-11-29T05:37:03.574Z,5.47
2017-11-29T05:39:30.956Z,5.21
2017-11-29T05:41:58.412Z,5.18
2017-11-29T05:44:25.795Z,5.29
2017-11-29T05:46:53.225Z,5.34
2017-11-29T05:49:20.606Z,5.18
2017-11-29T05:51:48.005Z,5.26
2017-11-29T05:54:15.388Z,5.12
2017-11-29T05:56:42.883Z,5.18
2017-11-29T05:59:10.291Z,5.13
2017-11-29T06:01:37.699Z,5.18
2017-11-29T06:04:05.092Z,5.25
2017-11-29T06:06:32.480Z,5.12
2017-11-29T06:08:59.884Z,5.15
2017-11-29T06:11:27.283Z,5.17
2017-11-29T06:13:54.780Z,5.43
2017-11-29T06:16:22.227Z,5.43
2017-11-29T06:18:49.623Z,5.35
2017-11-29T06:21:17.003Z,5.41
2017-11-29T06:23:44.399Z,5.23
2017-11-29T06:26:11.788Z,5.29
2017-11-29T06:28:39.197Z,5.34
2017-11-29T06:31:06.594Z,5.25
2017-11-29T06:33:33.980Z,5.11
2017-11-29T06:36:01.375Z,4.92
2017-11-29T06:38:28.768Z,5.15
2017-11-29T06:40:56.183Z,5.08
2017-11-29T06:43:23.572Z,5.05
2017-11-29T06:45:50.951Z,4.98
2017-11-29T06:48:18.503Z,4.96
2017-11-29T06:50:45.875Z,5.05
2017-11-29T06:53:13.263Z,5.16
2017-11-29T06:55:40.648Z,5.20
2017-11-29T06:58:08.076Z,5.31
2017-11-29T07:00:35.529Z,5.48
2017-11-29T07:03:02.948Z,5.32
2017-11-29T07:05:30.336Z,5.15
2017-11-29T07:07:57.720Z,5.10
2017-11-29T07:10:25.186Z,5.07
2017-11-29T07:12:52.576Z,5.03
2017-11-29T07:15:20.060Z,5.06
2017-11-29T07:17:47.444Z,5.32
2017-11-29T07:20:14.844Z,5.38
2017-11-29T07:22:42.491Z,5.44
2017-11-29T07:25:09.887Z,5.31
2017-11-29T07:27:37.305Z,5.39
2017-11-29T07:30:04.788Z,5.46
2017-11-29T07:32:32.252Z,5.40
2017-11-29T07:34:59.647Z,5.29
2017-11-29T07:37:27.076Z,5.02
2017-11-29T07:39:54.465Z,5.04
2017-11-29T07:42:21.847Z,4.99
2017-11-29T07:44:49.259Z,5.28
2017-11-29T07:47:16.669Z,5.23
2017-11-29T07:49:44.071Z,5.34
2017-11-29T07:52:11.499Z,5.31
2017-11-29T07:54:38.889Z,5.31
2017-11-29T07:57:06.320Z,5.47
2017-11-29T07:59:33.764Z,5.65
2017-11-29T08:02:01.148Z,5.60
2017-11-29T08:04:28.573Z,5.64
2017-11-29T08:06:55.964Z,5.80
2017-11-29T08:09:23.351Z,5.83
2017-11-29T08:11:50.739Z,5.66
2017-11-29T08:14:18.138Z,5.80
2017-11-29T08:16:45.563Z,5.93
2017-11-29T08:19:12.941Z,5.96
2017-11-29T08:21:40.331Z,5.92
2017-11-29T08:24:07.722Z,5.67
2017-11-29T08:26:35.132Z,5.87
2017-11-29T08:29:02.585Z,5.95
2017-11-29T08:31:29.985Z,5.81
2017-11-29T08:33:57.392Z,5.83
2017-11-29T08:36:24.914Z,5.84
2017-11-29T08:38:52.296Z,5.79
2017-11-29T08:41:19.688Z,5.61
2017-11-29T08:43:47.067Z,5.68
2017-11-29T08:46:14.469Z,5.58
2017-11-29T08:48:41.900Z,5.75
2017-11-29T08:51:09.285Z,5.80
2017-11-29T08:53:36.736Z,5.64
2017-11-29T08:56:04.132Z,5.65
2017-11-29T08:58:31.516Z,5.68
2017-11-29T09:00:58.911Z,5.66
2017-11-29T09:03:26.360Z,5.50
2017-11-29T09:05:53.811Z,5.48
2017-11-29T09:08:21.263Z,5.46
2017-11-29T09:10:48.668Z,5.68
2017-11-29T09:13:16.056Z,5.78
2017-11-29T09:15:43.448Z,6.09
2017-11-29T09:18:10.891Z,6.15
2017-11-29T09:20:38.279Z,6.09
2017-11-29T09:23:05.676Z,6.11
2017-11-29T09:25:33.069Z,6.14
2017-11-29T09:28:00.463Z,6.22
2017-11-29T09:30:27.854Z,6.16
2017-11-29T09:32:55.321Z,6.17
2017-11-29T09:35:22.796Z,6.31
2017-11-29T09:37:50.188Z,6.26
2017-11-29T09:40:17.567Z,6.15
2017-11-29T09:42:44.960Z,6.16
2017-11-29T09:45:12.352Z,6.31
2017-11-29T09:47:39.760Z,6.35
2017-11-29T09:50:07.155Z,6.58
2017-11-29T09:52:34.547Z,6.39
2017-11-29T09:55:01.949Z,6.39
2017-11-29T09:57:29.337Z,6.56
2017-11-29T09:59:56.724Z,6.67
2017-11-29T10:02:24.110Z,6.71
2017-11-29T10:04:51.531Z,6.74
2017-11-29T10:07:18.927Z,6.68
2017-11-29T10:12:13.107Z,6.60
2017-11-29T10:14:40.551Z,6.50
2017-11-29T10:17:07.947Z,6.56
2017-11-29T10:19:35.351Z,6.68
2017-11-29T10:22:02.751Z,6.66
2017-11-29T10:24:30.312Z,6.56
2017-11-29T10:26:57.709Z,6.61
2017-11-29T10:29:25.199Z,6.45
2017-11-29T10:31:52.640Z,6.42
2017-11-29T10:34:20.037Z,6.48
2017-11-29T10:36:47.423Z,6.32
2017-11-29T10:39:14.900Z,6.65
2017-11-29T10:41:42.306Z,6.74
2017-11-29T10:44:09.693Z,6.83
2017-11-29T10:46:37.163Z,6.89
2017-11-29T10:49:04.588Z,6.98
2017-11-29T10:51:31.982Z,7.00
2017-11-29T10:53:59.428Z,7.02
2017-11-29T10:56:26.833Z,7.20
2017-11-29T10:58:54.231Z,7.18
2017-11-29T11:01:21.621Z,6.99
2017-11-29T11:03:49.013Z,7.16
2017-11-29T11:06:16.396Z,7.03
2017-11-29T11:08:43.868Z,6.89
2017-11-29T11:11:11.325Z,6.97
2017-11-29T11:13:38.719Z,6.83
2017-11-29T11:16:06.139Z,6.66
2017-11-29T11:18:33.539Z,6.71
2017-11-29T11:21:00.915Z,6.80
2017-11-29T11:23:28.314Z,6.90
2017-11-29T11:25:55.707Z,6.95
2017-11-29T11:28:23.092Z,6.89
2017-11-29T11:30:50.489Z,6.90
2017-11-29T11:33:17.871Z,6.93
2017-11-29T11:35:45.276Z,6.72
2017-11-29T11:38:12.732Z,6.88
2017-11-29T11:40:40.124Z,6.91
2017-11-29T11:43:07.562Z,6.59
2017-11-29T11:45:34.953Z,6.22
2017-11-29T11:48:02.373Z,6.34
2017-11-29T11:50:29.732Z,6.55
2017-11-29T11:52:57.112Z,6.60
2017-11-29T11:55:24.516Z,6.46
2017-11-29T11:57:51.903Z,6.57
2017-11-29T12:00:19.292Z,6.48
2017-11-29T12:02:46.684Z,6.66
2017-11-29T12:05:14.089Z,6.82
2017-11-29T12:07:41.497Z,6.81
2017-11-29T12:10:08.948Z,6.96
2017-11-29T12:12:36.340Z,6.96
2017-11-29T12:15:03.727Z,6.90
2017-11-29T12:17:31.222Z,6.81
2017-11-29T12:19:58.608Z,6.81
2017-11-29T12:22:25.997Z,6.90
2017-11-29T12:24:53.485Z,6.82
2017-11-29T12:27:20.871Z,6.55
2017-11-29T12:29:48.259Z,6.81
2017-11-29T12:32:15.762Z,7.03
2017-11-29T12:34:43.148Z,7.03
2017-11-29T12:37:10.568Z,7.22
2017-11-29T12:39:37.945Z,7.18
2017-11-29T12:42:05.367Z,6.99
2017-11-29T12:44:32.727Z,7.23
2017-11-29T12:47:00.186Z,7.18
2017-11-29T12:49:39.512Z,6.98
2017-11-29T12:52:06.913Z,6.73
2017-11-29T12:54:34.324Z,6.92
2017-11-29T12:57:01.725Z,6.63
2017-11-29T12:59:29.104Z,6.53
2017-11-29T13:01:56.514Z,6.49
2017-11-29T13:04:23.891Z,6.53
2017-11-29T13:06:51.283Z,6.46
2017-11-29T13:09:18.724Z,6.56
2017-11-29T13:11:46.121Z,6.70
2017-11-29T13:14:13.513Z,6.63
2017-11-29T13:16:40.891Z,6.85
2017-11-29T13:19:08.339Z,7.01
2017-11-29T13:21:35.804Z,6.83
2017-11-29T13:24:03.188Z,6.58
2017-11-29T13:26:30.578Z,6.33
2017-11-29T13:28:57.971Z,6.07
2017-11-29T13:31:25.382Z,6.36
2017-11-29T13:33:52.885Z,6.37
2017-11-29T13:36:20.271Z,6.37
2017-11-29T13:38:47.661Z,6.37
2017-11-29T13:41:15.144Z,6.53
2017-11-29T13:43:42.537Z,6.62
2017-11-29T13:46:09.928Z,6.35
2017-11-29T13:48:37.409Z,6.12
2017-11-29T13:51:04.822Z,6.33
2017-11-29T13:53:32.191Z,6.34
2017-11-29T13:55:59.573Z,6.49
2017-11-29T13:58:26.955Z,6.45
2017-11-29T14:00:54.343Z,6.26
2017-11-29T14:03:21.848Z,6.08
2017-11-29T14:05:49.305Z,6.20
2017-11-29T14:08:16.692Z,6.32
2017-11-29T14:10:44.094Z,6.49
2017-11-29T14:13:11.493Z,6.66
2017-11-29T14:15:38.924Z,6.78
2017-11-29T14:18:06.321Z,6.90
2017-11-29T14:20:33.703Z,6.87
2017-11-29T14:23:01.100Z,6.96
2017-11-29T14:25:28.476Z,7.00
2017-11-29T14:27:55.870Z,6.97
2017-11-29T14:30:23.269Z,6.96
2017-11-29T14:32:50.676Z,6.84
2017-11-29T14:35:18.068Z,6.93
2017-11-29T14:37:45.464Z,7.04
2017-11-29T14:40:12.861Z,6.95
2017-11-29T14:42:40.244Z,6.80
2017-11-29T14:45:07.668Z,6.47
2017-11-29T14:47:35.051Z,6.70
2017-11-29T14:50:02.458Z,6.72
2017-11-29T14:52:29.831Z,6.79
2017-11-29T14:54:57.327Z,6.78
2017-11-29T14:57:24.712Z,6.84
2017-11-29T14:59:52.099Z,6.89
2017-11-29T15:02:19.488Z,6.92
2017-11-29T15:04:46.876Z,6.81
2017-11-29T15:07:14.267Z,6.64
2017-11-29T15:09:41.663Z,6.68
2017-11-29T15:12:09.056Z,6.18
2017-11-29T15:14:36.448Z,6.05
2017-11-29T15:17:03.872Z,5.94
2017-11-29T15:19:32.144Z,5.64
2017-11-29T15:21:59.596Z,5.88
2017-11-29T15:24:26.996Z,6.04
2017-11-29T15:26:54.380Z,5.91
2017-11-29T15:29:21.883Z,5.94
2017-11-29T15:31:49.274Z,6.20
2017-11-29T15:34:16.664Z,6.30
2017-11-29T15:36:44.086Z,6.17
2017-11-29T15:39:11.482Z,6.12
2017-11-29T15:41:38.863Z,6.00
2017-11-29T15:44:06.303Z,5.66
2017-11-29T15:46:33.707Z,5.65
2017-11-29T15:49:01.091Z,5.46
2017-11-29T15:51:28.487Z,4.97
2017-11-29T15:53:55.866Z,4.71
2017-11-29T15:56:23.257Z,4.77
2017-11-29T15:58:50.651Z,4.76
2017-11-29T16:01:18.047Z,4.62
2017-11-29T16:03:45.439Z,4.80
2017-11-29T16:06:12.894Z,4.72
2017-11-29T16:08:40.355Z,4.85
2017-11-29T16:11:07.803Z,5.04
2017-11-29T16:13:35.200Z,5.07
2017-11-29T16:16:02.592Z,5.31
2017-11-29T16:18:29.982Z,5.12
2017-11-29T16:20:57.376Z,5.24
2017-11-29T16:23:24.768Z,5.45
2017-11-29T16:25:52.170Z,5.32
2017-11-29T16:28:19.554Z,5.25
2017-11-29T16:30:46.953Z,5.52
2017-11-29T16:33:14.366Z,5.77
2017-11-29T16:35:41.759Z,5.90
2017-11-29T16:38:09.144Z,5.96
2017-11-29T16:40:36.547Z,5.89
2017-11-29T16:43:03.953Z,5.85
2017-11-29T16:45:31.383Z,6.10
2017-11-29T16:47:58.779Z,6.12
2017-11-29T16:50:26.164Z,6.03
2017-11-29T16:52:53.555Z,6.16
2017-11-29T16:55:21.002Z,6.16
2017-11-29T16:57:48.395Z,6.25
2017-11-29T17:00:15.796Z,6.35
2017-11-29T17:02:43.192Z,6.16
2017-11-29T17:05:10.579Z,6.26
2017-11-29T17:07:37.993Z,6.25
2017-11-29T17:10:05.368Z,6.11
2017-11-29T17:12:32.776Z,6.07
2017-11-29T17:15:00.164Z,6.12
2017-11-29T17:17:27.601Z,6.15
2017-11-29T17:19:54.979Z,6.07
2017-11-29T17:22:22.372Z,6.01
2017-11-29T17:24:49.767Z,5.92
2017-11-29T17:27:17.160Z,5.93
2017-11-29T17:30:11.593Z,5.98
2017-11-29T17:32:38.992Z,5.93
2017-11-29T17:35:06.373Z,5.84
2017-11-29T17:37:33.761Z,5.98
2017-11-29T17:40:01.224Z,5.99
2017-11-29T17:42:28.603Z,6.12
2017-11-29T17:44:56.267Z,6.11
2017-11-29T17:47:23.705Z,5.92
2017-11-29T17:49:51.088Z,6.10
2017-11-29T17:52:18.495Z,6.17
2017-11-29T17:54:45.961Z,6.04
2017-11-29T17:57:13.343Z,5.88
2017-11-29T17:59:40.741Z,5.81
2017-11-29T18:02:08.147Z,5.95
2017-11-29T18:04:35.543Z,5.72
2017-11-29T18:07:02.943Z,5.93
2017-11-29T18:09:30.419Z,5.67
2017-11-29T18:11:57.792Z,5.69
2017-11-29T18:14:25.184Z,5.51
2017-11-29T18:16:52.571Z,5.36
2017-11-29T18:19:19.960Z,5.48
2017-11-29T18:21:47.432Z,5.51
2017-11-29T18:24:14.828Z,5.48
2017-11-29T18:26:42.223Z,5.17
2017-11-29T18:29:09.616Z,5.25
2017-11-29T18:31:37.002Z,5.13
2017-11-29T18:34:04.540Z,5.17
2017-11-29T18:36:31.928Z,5.09
2017-11-29T18:38:59.430Z,5.03
2017-11-29T18:41:26.810Z,5.14
2017-11-29T18:43:54.231Z,4.87
2017-11-29T18:46:21.634Z,4.76
2017-11-29T18:48:49.008Z,4.91
2017-11-29T18:51:16.396Z,5.02
2017-11-29T18:53:43.780Z,5.13
2017-11-29T18:56:11.214Z,4.97
2017-11-29T18:58:38.598Z,5.14
2017-11-29T19:01:06.027Z,5.19
2017-11-29T19:03:33.423Z,5.13
2017-11-29T19:06:00.914Z,4.96
2017-11-29T19:08:28.424Z,4.99
2017-11-29T19:10:55.837Z,4.84
2017-11-29T19:13:23.223Z,5.06
2017-11-29T19:15:50.612Z,5.13
2017-11-29T19:18:18.005Z,4.76
2017-11-29T19:20:45.472Z,4.95
2017-11-29T19:23:12.873Z,4.95
2017-11-29T19:25:40.285Z,5.10
2017-11-29T19:28:07.732Z,5.23
2017-11-29T19:30:35.130Z,5.21
2017-11-29T19:35:29.203Z,4.98
2017-11-29T19:37:56.645Z,4.73
2017-11-29T19:40:24.043Z,4.77
2017-11-29T19:42:51.430Z,4.93
2017-11-29T19:45:18.911Z,4.77
2017-11-29T19:47:46.367Z,5.01
2017-11-29T19:50:13.764Z,4.68
2017-11-29T19:52:41.158Z,4.51
2017-11-29T19:55:08.627Z,4.62
2017-11-29T19:57:36.027Z,4.63
2017-11-29T20:00:04.050Z,4.77
2017-11-29T20:02:31.460Z,4.72
2017-11-29T20:04:58.851Z,4.57
2017-11-29T20:07:26.248Z,4.70
2017-11-29T20:09:53.651Z,4.72
2017-11-29T20:12:21.032Z,4.77
2017-11-29T20:14:48.432Z,4.60
2017-11-29T20:17:15.823Z,4.64
2017-11-29T20:19:43.220Z,4.42
2017-11-29T20:22:10.627Z,4.42
2017-11-29T20:24:40.828Z,4.44
2017-11-29T20:27:08.248Z,4.55
2017-11-29T20:29:35.638Z,4.55
2017-11-29T20:32:03.147Z,4.40
2017-11-29T20:34:30.594Z,4.28
2017-11-29T20:36:58.065Z,4.38
2017-11-29T20:39:25.443Z,4.64
2017-11-29T20:41:52.878Z,4.70
2017-11-29T20:44:20.264Z,4.82
2017-11-29T20:46:47.651Z,4.78
2017-11-29T20:49:15.048Z,4.77
2017-11-29T20:51:42.484Z,4.76
2017-11-29T20:54:09.948Z,4.93
2017-11-29T20:56:37.349Z,5.08
2017-11-29T20:59:04.772Z,5.17
2017-11-29T21:01:32.187Z,5.18
2017-11-29T21:03:59.683Z,5.19
2017-11-29T21:06:27.077Z,4.93
2017-11-29T21:08:54.576Z,5.09
2017-11-29T21:11:21.983Z,5.18
2017-11-29T21:13:49.367Z,5.06
2017-11-29T21:18:43.443Z,5.14
2017-11-29T21:21:10.833Z,5.30
2017-11-29T21:26:29.095Z,4.80
2017-11-29T21:28:56.488Z,4.81
2017-11-29T21:31:23.873Z,4.95
2017-11-29T21:33:51.276Z,4.95
2017-11-29T21:36:18.659Z,4.98
2017-11-29T21:38:46.047Z,5.12
2017-11-29T21:41:13.444Z,5.25
2017-11-29T21:43:40.885Z,5.34
2017-11-29T21:46:08.296Z,5.33
2017-11-29T21:48:35.680Z,4.98
2017-11-29T21:51:03.071Z,5.14
2017-11-29T21:53:30.463Z,5.02
2017-11-29T21:55:57.855Z,5.04
2017-11-29T21:58:25.261Z,5.01
2017-11-29T22:00:52.636Z,5.06
2017-11-29T22:03:20.040Z,4.74
2017-11-29T22:05:47.436Z,4.92
2017-11-29T22:08:14.832Z,4.92
2017-11-29T22:10:42.280Z,5.05
2017-11-29T22:13:09.668Z,5.14
2017-11-29T22:15:37.065Z,5.16
2017-11-29T22:18:04.457Z,5.12
2017-11-29T22:20:31.920Z,4.87
2017-11-29T22:22:59.302Z,4.65
2017-11-29T22:25:26.715Z,4.36
2017-11-29T22:27:54.131Z,4.43
2017-11-29T22:30:21.519Z,4.46
2017-11-29T22:32:48.976Z,4.70
2017-11-29T22:35:16.435Z,4.66
2017-11-29T22:37:43.832Z,4.63
2017-11-29T22:40:11.225Z,4.62
2017-11-29T22:42:38.613Z,4.76
2017-11-29T22:45:06.082Z,4.98
2017-11-29T22:47:33.462Z,5.09
2017-11-29T22:50:00.871Z,5.02
2017-11-29T22:52:28.315Z,5.01
2017-11-29T22:54:55.717Z,5.09
2017-11-29T22:57:23.099Z,4.76
2017-11-29T22:59:50.499Z,4.97
2017-11-29T23:02:17.947Z,4.97
2017-11-29T23:04:45.341Z,4.59
2017-11-29T23:07:12.726Z,4.34
2017-11-29T23:09:40.212Z,4.15
2017-11-29T23:12:07.596Z,4.10
2017-11-29T23:14:34.988Z,4.24
2017-11-29T23:17:02.380Z,4.43
2017-11-29T23:19:29.765Z,4.52
2017-11-29T23:21:57.160Z,4.52
2017-11-29T23:24:24.554Z,4.44
2017-11-29T23:26:51.944Z,4.47
2017-11-29T23:29:19.352Z,4.58
2017-11-29T23:31:46.806Z,4.73
2017-11-29T23:34:14.193Z,4.80
2017-11-29T23:36:41.678Z,5.01
2017-11-29T23:39:09.066Z,5.03
2017-11-29T23:41:36.458Z,4.67
2017-11-29T23:44:03.844Z,4.76
2017-11-29T23:46:31.247Z,4.86
2017-11-29T23:48:58.640Z,4.86
2017-11-29T23:51:26.044Z,5.00
2017-11-29T23:53:53.426Z,5.01
2017-11-29T23:56:20.820Z,4.88
2017-11-29T23:58:48.276Z,4.97
